• Join FlightAware (Why Join?)
  • Login
  • US Flag 
03:45AM EDT


 

Airport Tracker/Info


-or-


 

Live Flight TrackerFlight Track Log ✈ BWA480 ✈ 13-Jul-2013 ✈ TTPP / POS - KFLL

Flight Track Log - Related Links

Times and Time Zones

All times are in EDT time to prevent confusion due to time zone crossing. See the BWA480 flight status page for this flight to view local times or setup timezone preferences in your user account.

Time Position Orientation Groundspeed Altitude Reporting Facility
EDT Latitude Longitude Course Direction KTS MPH feet Rate Location/Type
12:42PM 10.5950 -61.3470 217° Southwest 26 30  Level FlightAware
12:42PM 10.5950 -61.3480 270° West 32 37 120 Level FlightAware
12:43PM 10.5950 -61.3500 270° West 31 36 120 Level FlightAware
12:43PM 10.5950 -61.3520 270° West 32 37 180 Level FlightAware
12:44PM 10.5950 -61.3450 90° East 115 132 240 Level FlightAware
12:45PM 10.5950 -61.3250 90° East 172 198 400 1,500 Climbing FlightAware
12:45PM 10.5960 -61.3120 86° East 172 198 1,100 2,040 Climbing FlightAware
12:46PM 10.5970 -61.2880 88° East 198 228 1,900 1,380 Climbing FlightAware
12:46PM 10.5970 -61.2660 90° East 227 261 2,300 1,860 Climbing FlightAware
12:46PM 10.5990 -61.2460 84° East 227 261 3,200 2,760 Climbing FlightAware
12:47PM 10.6040 -61.2340 67° East 236 272 3,700 2,520 Climbing FlightAware
12:47PM 10.6100 -61.2280 45° Northeast 239 275 4,000 2,460 Climbing FlightAware
12:47PM 10.6260 -61.2220 20° North 246 283 4,700 2,760 Climbing FlightAware
12:47PM 10.6400 -61.2230 356° North 247 284 5,300 2,700 Climbing FlightAware
12:47PM 10.6530 -61.2290 336° Northwest 250 288 5,800 1,800 Climbing FlightAware
12:48PM 10.6880 -61.2510 328° Northwest 286 329 6,700 2,100 Climbing FlightAware
12:48PM 10.7160 -61.2650 334° Northwest 291 335 7,800 2,700 Climbing FlightAware
12:49PM 10.7460 -61.2750 342° North 298 343 8,800 2,640 Climbing FlightAware
12:49PM 10.7650 -61.2830 338° Northwest 302 348 9,500 2,100 Climbing FlightAware
12:50PM 10.8160 -61.3160 328° Northwest 333 383 10,800 1,680 Climbing FlightAware
12:50PM 10.8710 -61.3530 327° Northwest 368 423 11,800 1,800 Climbing FlightAware
12:51PM 10.9390 -61.3980 327° Northwest 388 447 13,400 2,220 Climbing FlightAware
12:52PM 11.0040 -61.4410 327° Northwest 394 453 15,100 2,400 Climbing FlightAware
12:52PM 11.0650 -61.4810 327° Northwest 395 455 16,700 2,160 Climbing FlightAware
12:53PM 11.1290 -61.5240 327° Northwest 405 466 18,100 2,460 Climbing FlightAware
12:54PM 11.1910 -61.5650 327° Northwest 389 448 20,100 2,400 Climbing FlightAware
12:54PM 11.2530 -61.6060 327° Northwest 392 451 21,400 1,800 Climbing FlightAware
12:55PM 11.3260 -61.6540 327° Northwest 398 458 22,800 1,680 Climbing FlightAware
12:56PM 11.3920 -61.6980 327° Northwest 408 470 23,900 1,500 Climbing FlightAware
12:57PM 11.4490 -61.7350 328° Northwest 411 473 24,800 1,500 Climbing FlightAware
12:57PM 11.5220 -61.7840 327° Northwest 416 479 26,000 1,320 Climbing FlightAware
12:58PM 11.5910 -61.8300 327° Northwest 424 488 26,800 1,080 Climbing FlightAware
12:59PM 11.6660 -61.8790 327° Northwest 436 502 27,600 1,020 Climbing FlightAware
12:59PM 11.7340 -61.9240 327° Northwest 444 511 28,300 1,020 Climbing FlightAware
01:00PM 11.8000 -61.9690 326° Northwest 448 516 29,000 1,140 Climbing FlightAware
01:01PM 11.8760 -62.0190 327° Northwest 451 519 29,900 1,200 Climbing FlightAware
01:02PM 11.9530 -62.0710 327° Northwest 453 521 30,800 1,080 Climbing FlightAware
01:02PM 12.0290 -62.1210 327° Northwest 458 527 31,500 900 Climbing FlightAware
01:03PM 12.1330 -62.1900 327° Northwest 466 536 32,300 1,020 Climbing FlightAware
01:04PM 12.2040 -62.2380 327° Northwest 461 531 33,200 1,200 Climbing FlightAware
01:05PM 12.2790 -62.2870 327° Northwest 456 525 34,000 540 Climbing FlightAware
01:05PM 12.3520 -62.3370 326° Northwest 455 524 34,000  Level FlightAware
01:06PM 12.4270 -62.3870 327° Northwest 454 522 34,000  Level FlightAware
01:07PM 12.4980 -62.4350 327° Northwest 454 522 34,000  Level FlightAware
01:08PM 12.5850 -62.4940 327° Northwest 454 522 34,000  Level FlightAware
01:08PM 12.6390 -62.5310 326° Northwest 454 522 34,000  Level FlightAware
01:09PM 12.7120 -62.5780 328° Northwest 456 525 34,000  Level FlightAware
01:10PM 12.7810 -62.6240 327° Northwest 455 524 34,000  Level FlightAware
01:11PM 12.9000 -62.7050 326° Northwest 455 524 34,000  Level FlightAware
01:12PM 12.9900 -62.7650 327° Northwest 456 525 34,000  Level FlightAware
01:12PM 13.0580 -62.8130 325° Northwest 456 525 34,000  Level FlightAware
01:13PM 13.1470 -62.8750 326° Northwest 456 525 34,000  Level FlightAware
01:14PM 13.2020 -62.9130 326° Northwest 456 525 34,000  Level FlightAware
01:15PM 13.2530 -62.9480 326° Northwest 456 525 34,000  Level FlightAware
01:15PM 13.3940 -63.0380 328° Northwest 459 528 34,000  Level FlightAware
01:16PM 13.4650 -63.0870 326° Northwest 458 527 34,000  Level FlightAware
01:17PM 13.5190 -63.1240 326° Northwest 458 527 34,000  Level FlightAware
01:17PM 13.5740 -63.1630 325° Northwest 458 527 34,000  Level FlightAware
01:18PM 13.6300 -63.2010 327° Northwest 458 527 34,000  Level FlightAware
01:19PM 13.6980 -63.2490 326° Northwest 458 527 34,000  Level FlightAware
01:20PM 13.7880 -63.3110 326° Northwest 458 527 34,000  Level FlightAware
01:20PM 13.8430 -63.3490 326° Northwest 458 527 34,000  Level FlightAware
01:21PM 13.9130 -63.3980 326° Northwest 458 527 34,000  Level FlightAware
01:22PM 13.9670 -63.4350 326° Northwest 458 527 34,000  Level FlightAware
01:22PM 14.0190 -63.4720 325° Northwest 458 527 34,000  Level FlightAware
01:23PM 14.0910 -63.5220 326° Northwest 458 527 34,000  Level FlightAware
01:24PM 14.1840 -63.5860 326° Northwest 458 527 34,000  Level FlightAware
01:25PM 14.2370 -63.6230 326° Northwest 458 527 34,000  Level FlightAware
01:26PM 14.3090 -63.6730 326° Northwest 458 527 34,000  Level FlightAware
01:28PM 14.5058 -63.8038 327° Northwest  Level FlightAware Approximate
01:29PM 14.6067 -63.8709 327° Northwest  Level FlightAware Approximate
01:30PM 14.7076 -63.9381 327° Northwest  Level FlightAware Approximate
01:31PM 14.8085 -64.0054 327° Northwest  Level FlightAware Approximate
01:32PM 14.9094 -64.0728 327° Northwest  Level FlightAware Approximate
01:33PM 15.0086 -64.1419 316° Northwest  Level FlightAware Approximate
01:34PM 15.0980 -64.2247 320° Northwest  Level FlightAware Approximate
01:35PM 15.1902 -64.3043 320° Northwest  Level FlightAware Approximate
01:35PM 15.4667 -64.5500 321° Northwest 620 713 34,000  Level San Juan Center
01:36PM 15.2810 -64.3827 320° Northwest  Level FlightAware Approximate
01:36PM 15.5667 -64.6333 321° Northwest 480 552 34,000  Level San Juan Center
01:37PM 15.3717 -64.4611 320° Northwest  Level FlightAware Approximate
01:37PM 15.6667 -64.7000 327° Northwest 440 506 34,000  Level San Juan Center
01:38PM 15.4633 -64.5385 321° Northwest  Level FlightAware Approximate
01:39PM 15.5558 -64.6149 321° Northwest  Level FlightAware Approximate
01:40PM 15.6482 -64.6914 321° Northwest  Level FlightAware Approximate
01:41PM 15.7405 -64.7680 321° Northwest  Level FlightAware Approximate
01:43PM 16.2560 -65.1930 327° Northwest 452 520 34,000  Level FlightAware
01:44PM 16.3500 -65.2720 321° Northwest 450 518 34,000  Level FlightAware
01:45PM 16.4610 -65.3660 321° Northwest 447 514 34,000  Level FlightAware
01:46PM 16.5350 -65.4280 321° Northwest 448 516 34,000 60 Level FlightAware
01:47PM 16.5990 -65.4830 321° Northwest 456 525 34,100 720 Climbing FlightAware
01:48PM 16.6910 -65.5610 321° Northwest 450 518 35,200 1,080 Climbing FlightAware
01:48PM 16.7450 -65.6070 321° Northwest 449 517 35,800 540 Climbing FlightAware
01:49PM 16.8220 -65.6720 321° Northwest 449 517 36,000 120 Climbing FlightAware
01:50PM 16.8780 -65.7200 321° Northwest 449 517 36,000  Level FlightAware
01:50PM 16.9540 -65.7840 321° Northwest 447 514 36,000  Level FlightAware
01:51PM 17.0090 -65.8310 321° Northwest 447 514 36,000  Level FlightAware
01:52PM 17.0720 -65.8840 321° Northwest 446 513 36,000  Level FlightAware
01:53PM 17.1430 -65.9460 320° Northwest 445 512 36,000  Level FlightAware
01:53PM 17.2300 -66.0190 321° Northwest 445 512 36,000  Level FlightAware
01:54PM 17.2960 -66.0760 320° Northwest 445 512 36,000  Level FlightAware
01:55PM 17.3590 -66.1290 321° Northwest 445 512 36,000  Level FlightAware
01:55PM 17.4040 -66.1680 320° Northwest 445 512 36,000  Level FlightAware
01:56PM 17.4750 -66.2280 321° Northwest 445 512 36,000  Level FlightAware
01:57PM 17.5400 -66.2840 321° Northwest 445 512 36,000  Level FlightAware
01:57PM 17.5910 -66.3280 321° Northwest 446 513 36,000  Level FlightAware
01:58PM 17.6630 -66.3900 321° Northwest 446 513 36,000  Level FlightAware
01:59PM 17.7290 -66.4460 321° Northwest 446 513 36,000  Level FlightAware
01:59PM 17.7910 -66.4990 321° Northwest 446 513 36,000  Level FlightAware
02:00PM 17.8780 -66.5740 321° Northwest 446 513 36,000  Level FlightAware
02:01PM 17.9610 -66.6450 321° Northwest 445 512 36,000  Level FlightAware
02:02PM 18.0250 -66.7000 321° Northwest 445 512 36,000  Level FlightAware
02:02PM 18.0950 -66.7610 320° Northwest 444 511 36,000  Level FlightAware
02:03PM 18.1600 -66.8160 321° Northwest 445 512 36,000  Level FlightAware
02:04PM 18.2220 -66.8700 320° Northwest 443 510 36,000  Level FlightAware
02:04PM 18.2920 -66.9310 320° Northwest 442 509 36,000  Level FlightAware
02:05PM 18.3640 -66.9930 321° Northwest 441 507 36,000  Level FlightAware
02:06PM 18.4250 -67.0460 321° Northwest 443 510 36,000  Level FlightAware
02:07PM 18.4910 -67.1030 321° Northwest 442 509 36,000  Level FlightAware
02:07PM 18.5500 -67.1750 311° West 442 509 36,000  Level FlightAware
02:08PM 18.6050 -67.2490 308° West 443 510 36,000  Level FlightAware
02:09PM 18.6560 -67.3160 309° West 444 511 36,000  Level FlightAware
02:09PM 18.7130 -67.3910 309° West 442 509 36,000  Level FlightAware
02:10PM 18.7530 -67.4440 309° West 441 507 36,000  Level FlightAware
02:11PM 18.8570 -67.5820 309° West 438 504 36,000  Level FlightAware
02:12PM 18.9070 -67.6490 308° West 436 502 36,000  Level FlightAware
02:13PM 18.9630 -67.7230 309° West 435 501 36,000  Level FlightAware
02:13PM 19.0130 -67.7880 309° West 434 499 36,000  Level FlightAware
02:14PM 19.0580 -67.8480 308° West 434 499 36,000  Level FlightAware
02:15PM 19.1140 -67.9220 309° West 434 499 36,000  Level FlightAware
02:15PM 19.1650 -67.9900 308° West 434 499 36,000  Level FlightAware
02:16PM 19.2080 -68.0470 309° West 436 502 36,000  Level FlightAware
02:17PM 19.2610 -68.1180 308° West 437 503 36,000  Level FlightAware
02:17PM 19.3160 -68.1910 309° West 437 503 36,000  Level FlightAware
02:18PM 19.3650 -68.2560 309° West 437 503 36,000  Level FlightAware
02:19PM 19.4200 -68.3290 309° West 438 504 36,000  Level FlightAware
02:19PM 19.4700 -68.3970 308° West 439 505 36,000  Level FlightAware
02:20PM 19.5280 -68.4740 309° West 440 506 36,000  Level FlightAware
02:21PM 19.5660 -68.5250 308° West 439 505 36,000  Level FlightAware
02:21PM 19.6180 -68.5970 307° West 438 504 36,000  Level FlightAware
02:22PM 19.6700 -68.6750 305° West 438 504 36,000  Level FlightAware
02:23PM 19.7110 -68.7340 306° West 437 503 36,000  Level FlightAware
02:23PM 19.7600 -68.8070 306° West 437 503 36,000  Level FlightAware
02:24PM 19.8100 -68.8810 306° West 436 502 36,000  Level FlightAware
02:25PM 19.8550 -68.9460 306° West 436 502 36,000  Level FlightAware
02:25PM 19.8960 -69.0060 306° West 439 505 36,000  Level FlightAware
02:26PM 19.9490 -69.0850 306° West 440 506 36,000  Level FlightAware
02:27PM 20.0110 -69.1780 305° West 440 506 36,000  Level FlightAware
02:28PM 20.0470 -69.2320 305° West 440 506 36,000  Level FlightAware
02:28PM 20.0960 -69.3060 305° West 440 506 36,000  Level FlightAware
02:29PM 20.1320 -69.3620 304° West 440 506 36,000  Level FlightAware
02:30PM 20.1820 -69.4370 305° West 440 506 36,000  Level FlightAware
02:30PM 20.2180 -69.4920 305° West 440 506 36,000  Level FlightAware
02:31PM 20.2650 -69.5640 305° West 440 506 36,000  Level FlightAware
02:32PM 20.3010 -69.6180 305° West 440 506 36,000  Level FlightAware
02:32PM 20.3390 -69.6760 305° West 440 506 36,000  Level FlightAware
02:33PM 20.3740 -69.7300 305° West 440 506 36,000  Level FlightAware
02:34PM 20.4110 -69.7860 305° West 440 506 36,000  Level FlightAware
02:34PM 20.4590 -69.8590 305° West 440 506 36,000  Level FlightAware
02:35PM 20.4950 -69.9130 305° West 440 506 36,000  Level FlightAware
02:36PM 20.5420 -69.9860 305° West 440 506 36,000  Level FlightAware
02:36PM 20.5780 -70.0400 305° West 440 506 36,000  Level FlightAware
02:38PM 20.7825 -70.3569 305° West 448 516 36,000  Level Miami Center
02:39PM 20.8514 -70.4622 305° West 448 516 36,000  Level Miami Center
02:40PM 20.9206 -70.5722 304° West 448 516 36,000  Level Miami Center
02:41PM 20.9917 -70.6778 306° West 448 516 36,000  Level Miami Center
02:42PM 21.0625 -70.7856 305° West 448 516 36,000  Level Miami Center
02:43PM 21.1314 -70.8958 304° West 448 516 36,000  Level Miami Center
02:44PM 21.2003 -71.0017 305° West 448 516 36,000  Level Miami Center
02:45PM 21.2669 -71.1100 303° West 448 516 36,000  Level Miami Center
02:46PM 21.3308 -71.2075 305° West 448 516 36,000  Level Miami Center
02:47PM 21.4019 -71.3203 304° West 453 521 36,000  Level Miami Center
02:48PM 21.4744 -71.4242 307° West 448 516 36,000  Level Miami Center
02:49PM 21.5406 -71.5286 304° West 436 502 36,000  Level Miami Center
02:50PM 21.6067 -71.6308 305° West 430 495 36,000  Level Miami Center
02:51PM 21.6750 -71.7353 305° West 430 495 36,000  Level Miami Center
02:52PM 21.7431 -71.8397 305° West 430 495 36,000  Level Miami Center
02:53PM 21.8089 -71.9422 305° West 430 495 36,000  Level Miami Center
02:54PM 21.8728 -72.0472 303° West 430 495 36,000  Level Miami Center
02:55PM 21.9408 -72.1522 305° West 430 495 36,000  Level Miami Center
02:56PM 22.0067 -72.2572 304° West 430 495 36,000  Level Miami Center
02:57PM 22.0725 -72.3625 304° West 430 495 36,000  Level Miami Center
02:58PM 22.1403 -72.4678 305° West 430 495 36,000  Level Miami Center
02:59PM 22.2081 -72.5753 304° West 430 495 36,000  Level Miami Center
03:00PM 22.2778 -72.6806 306° West 430 495 36,000  Level Miami Center
03:01PM 22.3433 -72.7908 303° West 435 501 36,000  Level Miami Center
03:02PM 22.4217 -72.9050 307° West 435 501 36,000  Level Miami Center
03:03PM 22.4869 -73.0133 303° West 435 501 36,000  Level Miami Center
03:04PM 22.5544 -73.1214 304° West 435 501 36,000  Level Miami Center
03:05PM 22.6175 -73.2297 302° West 430 495 36,000  Level Miami Center
03:06PM 22.6828 -73.3383 303° West 430 495 36,000  Level Miami Center
03:07PM 22.7542 -73.4422 307° West 430 495 36,000  Level Miami Center
03:08PM 22.8192 -73.5508 303° West 435 501 36,000  Level Miami Center
03:09PM 22.8906 -73.6594 306° West 435 501 36,000  Level Miami Center
03:10PM 22.9594 -73.7661 305° West 435 501 36,000  Level Miami Center
03:11PM 23.0244 -73.8772 302° West 435 501 36,000  Level Miami Center
03:12PM 23.0914 -73.9864 304° West 435 501 36,000  Level Miami Center
03:13PM 23.1603 -74.0956 304° West 435 501 36,000  Level Miami Center
03:14PM 23.2250 -74.2072 302° West 435 501 36,000  Level Miami Center
03:15PM 23.2958 -74.3164 305° West 435 501 36,000  Level Miami Center
03:16PM 23.3625 -74.4306 302° West 441 507 36,000  Level Miami Center
03:17PM 23.4311 -74.5378 305° West 441 507 36,000  Level Miami Center
03:18PM 23.4994 -74.6500 304° West 441 507 36,000  Level Miami Center
03:19PM 23.5700 -74.7619 305° West 441 507 36,000  Level Miami Center
03:20PM 23.6344 -74.8744 302° West 441 507 36,000  Level Miami Center
03:21PM 23.7025 -74.9844 304° West 441 507 36,000  Level Miami Center
03:22PM 23.7708 -75.0947 304° West 441 507 36,000  Level Miami Center
03:23PM 23.8411 -75.2072 304° West 441 507 36,000  Level Miami Center
03:24PM 23.9072 -75.3222 302° West 441 507 36,000  Level Miami Center
03:25PM 23.9772 -75.4375 304° West 446 513 36,000  Level Miami Center
03:26PM 24.0431 -75.5506 303° West 451 519 36,000  Level Miami Center
03:27PM 24.1108 -75.6636 303° West 451 519 36,000  Level Miami Center
03:28PM 24.1786 -75.7792 303° West 451 519 36,000  Level Miami Center
03:29PM 24.2464 -75.8925 303° West 451 519 36,000  Level Miami Center
03:30PM 24.3117 -76.0058 302° West 451 519 36,000  Level Miami Center
03:31PM 24.3792 -76.1219 303° West 451 519 36,000  Level Miami Center
03:32PM 24.4489 -76.2333 305° West 451 519 36,000 -420 Level Miami Center
03:33PM 24.5119 -76.3472 301° West 446 513 35,200 -900 Descending Miami Center
03:34PM 24.5811 -76.4636 303° West 446 513 34,300 -600 Descending Miami Center
03:35PM 24.6483 -76.5800 302° West 451 519 34,000 -180 Descending Miami Center
03:36PM 24.7175 -76.6964 303° West 451 519 34,000  Level Miami Center
03:37PM 24.7844 -76.8131 302° West 451 519 34,000  Level Miami Center
03:38PM 24.8533 -76.9297 303° West 451 519 34,000  Level Miami Center
03:39PM 24.9244 -77.0514 303° West 451 519 34,000  Level Miami Center
03:40PM 24.9933 -77.1661 304° West 451 519 34,000  Level Miami Center
03:41PM 25.0639 -77.2808 304° West 451 519 34,000  Level Miami Center
03:42PM 25.1347 -77.4075 302° West 464 534 34,000  Level Miami Center
03:43PM 25.1989 -77.5181 303° West 476 548 34,000  Level Miami Center
03:44PM 25.2631 -77.6378 301° West 471 542 34,000  Level Miami Center
03:45PM 25.3294 -77.7578 301° West 466 536 34,000  Level Miami Center
03:46PM 25.3975 -77.8756 303° West 461 531 34,000 -1,080 Level Miami Center
03:47PM 25.4447 -78.0072 292° West 456 525 31,900 -2,160 Descending Miami Center
03:52PM 25.6540 -78.7490 292° West 416 479 20,200 -2,100 Descending FlightAware
03:53PM 25.6940 -78.8300 299° West 406 467 18,700 -1,740 Descending FlightAware
03:54PM 25.7240 -78.8890 299° West 388 447 18,000 -600 Descending FlightAware
03:54PM 25.7550 -78.9530 298° West 365 420 18,000  Level FlightAware
03:55PM 25.7530 -79.0330 268° West 355 409 18,000  Level FlightAware
03:56PM 25.7380 -79.0980 256° West 352 405 18,000  Level FlightAware
03:56PM 25.7210 -79.1730 256° West 332 382 18,000  Level FlightAware
03:57PM 25.7120 -79.2110 255° West 306 352 18,000  Level FlightAware
03:57PM 25.7000 -79.2700 257° West 291 335 18,000  Level FlightAware
03:58PM 25.7220 -79.3130 300° West 295 339 18,000  Level FlightAware
03:58PM 25.7480 -79.3210 345° North 301 346 18,000  Level FlightAware
03:59PM 25.7900 -79.2960 28° Northeast 304 350 18,000  Level FlightAware
03:59PM 25.7970 -79.2770 68° East 303 349 18,000  Level FlightAware
04:00PM 25.7880 -79.2320 103° East 300 345 18,000  Level FlightAware
04:00PM 25.7620 -79.1790 119° Southeast 298 343 18,000 -660 Level FlightAware
04:01PM 25.7380 -79.1300 119° Southeast 298 343 17,200 -1,320 Descending FlightAware
04:02PM 25.7110 -79.0780 120° Southeast 292 336 16,400 -1,080 Descending FlightAware
04:02PM 25.6950 -79.0630 140° Southeast 279 321 16,200 -1,020 Descending FlightAware
04:02PM 25.6780 -79.0570 162° South 276 318 15,900 -480 Descending FlightAware
04:03PM 25.6450 -79.0640 191° South 277 319 15,900  Level FlightAware
04:03PM 25.6320 -79.0740 215° Southwest 277 319 15,900 180 Level FlightAware
04:03PM 25.6200 -79.0980 241° Southwest 280 322 16,000  Climbing FlightAware
04:03PM 25.6190 -79.1150 266° West 282 325 15,900 -240 Descending FlightAware
04:04PM 25.6240 -79.1370 284° West 285 328 15,900 -240 Level FlightAware
04:04PM 25.6230 -79.1920 269° West 273 314 15,700 -720 Descending FlightAware
04:04PM 25.6120 -79.2030 222° Southwest 275 316 15,300 -1,860 Descending FlightAware
04:05PM 25.5670 -79.2310 209° Southwest 282 325 14,100 -1,140 Descending FlightAware
04:06PM 25.5450 -79.2660 235° Southwest 282 325 13,900 -780 Descending FlightAware
04:06PM 25.5750 -79.3000 314° West 267 307 13,400 -1,140 Descending FlightAware
04:07PM 25.6030 -79.3340 312° West 259 298 12,900 -1,320 Descending FlightAware
04:07PM 25.6420 -79.3830 311° West 260 299 11,600 -1,500 Descending FlightAware
04:08PM 25.6680 -79.4140 313° West 252 290 10,900 -1,680 Descending FlightAware
04:08PM 25.6910 -79.4430 311° West 265 305 9,900 -1,980 Descending FlightAware
04:09PM 25.7050 -79.4590 314° West 266 306 9,400 -1,680 Descending FlightAware
04:09PM 25.7280 -79.4870 312° West 263 303 8,700 -1,500 Descending FlightAware
04:09PM 25.7440 -79.5070 312° West 259 298 8,200 -1,560 Descending FlightAware
04:10PM 25.7590 -79.5250 313° West 256 295 7,700 -1,560 Descending FlightAware
04:10PM 25.7830 -79.5530 314° West 249 287 7,000 -1,140 Descending FlightAware
04:12PM 25.8360 -79.6380 305° West 230 265 5,600 -1,020 Descending FlightAware
04:12PM 25.8490 -79.6680 296° West 230 265 5,100 -1,140 Descending FlightAware
04:13PM 25.8580 -79.6910 294° West 227 261 4,700 -1,080 Descending FlightAware
04:13PM 25.8690 -79.7170 295° West 229 264 4,300 -1,020 Descending FlightAware
04:13PM 25.8740 -79.7290 295° West 229 264 4,100 -600 Descending FlightAware
04:14PM 25.8860 -79.7600 293° West 226 260 3,900 -240 Descending FlightAware
04:14PM 25.8980 -79.7880 295° West 226 260 3,900 60 Level FlightAware
04:15PM 25.9170 -79.8360 294° West 225 259 4,000 -300 Climbing FlightAware
04:16PM 25.9360 -79.8820 295° West 205 236 3,500 -1,080 Descending FlightAware
04:16PM 25.9430 -79.9070 287° West 199 229 3,100 -900 Descending FlightAware
04:16PM 25.9450 -79.9220 278° West 199 229 2,900 -300 Descending FlightAware
04:17PM 25.9480 -79.9510 277° West 200 230 2,900 -720 Level FlightAware
04:17PM 25.9510 -79.9780 277° West 205 236 2,300 -1,200 Descending FlightAware
04:18PM 25.9550 -80.0040 280° West 206 237 1,900 -540 Descending FlightAware
04:18PM 25.9570 -80.0280 275° West 203 234 1,900  Level FlightAware
04:18PM 25.9610 -80.0560 279° West 190 219 1,900  Level FlightAware
04:19PM 25.9640 -80.0840 277° West 184 212 1,900  Level FlightAware
04:19PM 25.9660 -80.0980 279° West 185 213 1,900  Level FlightAware
04:20PM 25.9690 -80.1210 278° West 185 213 1,900 120 Level FlightAware
04:20PM 25.9710 -80.1390 277° West 187 215 2,000  Climbing FlightAware
04:20PM 25.9650 -80.1720 259° West 190 219 1,900 -120 Descending FlightAware
04:21PM 25.9620 -80.1950 262° West 192 221 1,900  Level FlightAware
04:21PM 25.9660 -80.2110 286° West 195 224 1,900  Level FlightAware
04:21PM 25.9750 -80.2310 297° West 196 226 1,900  Level FlightAware
04:22PM 25.9870 -80.2600 295° West 195 224 1,900 -240 Level FlightAware
04:24PM 26.0370 -80.2310 28° Northeast 162 186 1,500 -360 Descending FlightAware
04:24PM 26.0370 -80.2200 90° East 157 181 1,300 -840 Descending FlightAware
04:24PM 26.0370 -80.1960 90° East 161 185 900 -780 Descending FlightAware
04:25PM 26.0360 -80.1700 92° East 166 191 500 -780 Descending FlightAware
04:25PM 26.0360 -80.1400 90° East 159 183 -840 Descending FlightAware
04:26PM 26.0360 -80.1200 90° East 159 183  Level FlightAware
04:28PM 26.0350 -80.1260 259° West 17 20  Level FlightAware
04:32PM 26.0726 -80.1527 90° East  Level Estimated